sensor_id;sensor_type;location;lat;lon;timestamp;P1;durP1;ratioP1;P2;durP2;ratioP2
71941;SDS011;59997;53.300;-6.260;2024-03-02T00:01:11;11.43;;;3.10;;
71941;SDS011;59997;53.300;-6.260;2024-03-02T00:03:37;12.18;;;2.30;;
71941;SDS011;59997;53.300;-6.260;2024-03-02T00:06:03;13.75;;;2.58;;
71941;SDS011;59997;53.300;-6.260;2024-03-02T00:08:29;12.98;;;2.88;;
71941;SDS011;59997;53.300;-6.260;2024-03-02T00:10:58;12.70;;;2.40;;
71941;SDS011;59997;53.300;-6.260;2024-03-02T00:13:25;7.70;;;2.72;;
71941;SDS011;59997;53.300;-6.260;2024-03-02T00:15:54;10.80;;;1.65;;
71941;SDS011;59997;53.300;-6.260;2024-03-02T00:18:25;10.05;;;1.85;;
71941;SDS011;59997;53.300;-6.260;2024-03-02T00:20:53;7.38;;;1.98;;
71941;SDS011;59997;53.300;-6.260;2024-03-02T00:23:20;9.48;;;2.00;;
71941;SDS011;59997;53.300;-6.260;2024-03-02T00:25:47;12.10;;;2.33;;
71941;SDS011;59997;53.300;-6.260;2024-03-02T00:28:16;10.02;;;2.25;;
71941;SDS011;59997;53.300;-6.260;2024-03-02T00:33:16;7.78;;;1.55;;
71941;SDS011;59997;53.300;-6.260;2024-03-02T00:35:44;8.20;;;1.63;;
71941;SDS011;59997;53.300;-6.260;2024-03-02T00:38:10;11.27;;;1.50;;
71941;SDS011;59997;53.300;-6.260;2024-03-02T00:40:35;12.13;;;1.70;;
71941;SDS011;59997;53.300;-6.260;2024-03-02T00:43:01;11.53;;;1.77;;
71941;SDS011;59997;53.300;-6.260;2024-03-02T00:45:28;7.00;;;1.13;;
71941;SDS011;59997;53.300;-6.260;2024-03-02T00:47:54;8.40;;;1.70;;
71941;SDS011;59997;53.300;-6.260;2024-03-02T00:50:20;7.85;;;1.25;;
71941;SDS011;59997;53.300;-6.260;2024-03-02T00:52:46;7.53;;;0.85;;
71941;SDS011;59997;53.300;-6.260;2024-03-02T00:55:13;8.45;;;1.27;;
71941;SDS011;59997;53.300;-6.260;2024-03-02T00:57:39;8.80;;;1.38;;
71941;SDS011;59997;53.300;-6.260;2024-03-02T01:00:05;7.70;;;1.17;;
71941;SDS011;59997;53.300;-6.260;2024-03-02T01:02:34;8.98;;;1.52;;
71941;SDS011;59997;53.300;-6.260;2024-03-02T01:05:00;8.07;;;0.93;;
71941;SDS011;59997;53.300;-6.260;2024-03-02T01:07:26;7.17;;;1.40;;
71941;SDS011;59997;53.300;-6.260;2024-03-02T01:09:51;8.93;;;1.15;;
71941;SDS011;59997;53.300;-6.260;2024-03-02T01:12:17;8.17;;;0.90;;
71941;SDS011;59997;53.300;-6.260;2024-03-02T01:14:42;6.77;;;1.30;;
71941;SDS011;59997;53.300;-6.260;2024-03-02T01:17:08;8.13;;;1.40;;
71941;SDS011;59997;53.300;-6.260;2024-03-02T01:19:33;8.37;;;1.33;;
71941;SDS011;59997;53.300;-6.260;2024-03-02T01:21:59;9.27;;;1.43;;
71941;SDS011;59997;53.300;-6.260;2024-03-02T01:24:24;9.07;;;1.60;;
71941;SDS011;59997;53.300;-6.260;2024-03-02T01:26:50;6.05;;;1.25;;
71941;SDS011;59997;53.300;-6.260;2024-03-02T01:29:16;6.90;;;1.10;;
71941;SDS011;59997;53.300;-6.260;2024-03-02T01:31:41;8.77;;;1.30;;
71941;SDS011;59997;53.300;-6.260;2024-03-02T01:34:10;6.72;;;1.05;;
71941;SDS011;59997;53.300;-6.260;2024-03-02T01:36:36;6.47;;;1.00;;
71941;SDS011;59997;53.300;-6.260;2024-03-02T01:39:02;9.80;;;1.83;;
71941;SDS011;59997;53.300;-6.260;2024-03-02T01:41:28;10.30;;;1.50;;
71941;SDS011;59997;53.300;-6.260;2024-03-02T01:43:53;10.60;;;1.40;;
71941;SDS011;59997;53.300;-6.260;2024-03-02T01:46:18;7.70;;;1.33;;
71941;SDS011;59997;53.300;-6.260;2024-03-02T01:48:44;12.93;;;1.23;;
71941;SDS011;59997;53.300;-6.260;2024-03-02T01:51:10;7.20;;;1.23;;
71941;SDS011;59997;53.300;-6.260;2024-03-02T01:53:35;7.18;;;1.30;;
71941;SDS011;59997;53.300;-6.260;2024-03-02T01:56:02;9.70;;;1.42;;
71941;SDS011;59997;53.300;-6.260;2024-03-02T01:58:27;6.97;;;1.33;;
71941;SDS011;59997;53.300;-6.260;2024-03-02T02:00:53;10.13;;;1.30;;
71941;SDS011;59997;53.300;-6.260;2024-03-02T02:03:18;7.90;;;1.60;;
71941;SDS011;59997;53.300;-6.260;2024-03-02T02:05:44;9.13;;;1.70;;
71941;SDS011;59997;53.300;-6.260;2024-03-02T02:08:12;8.90;;;1.20;;
71941;SDS011;59997;53.300;-6.260;2024-03-02T02:10:37;6.73;;;1.20;;
71941;SDS011;59997;53.300;-6.260;2024-03-02T02:13:03;10.68;;;1.30;;
71941;SDS011;59997;53.300;-6.260;2024-03-02T02:15:29;5.37;;;0.77;;
71941;SDS011;59997;53.300;-6.260;2024-03-02T02:17:56;7.50;;;1.10;;
71941;SDS011;59997;53.300;-6.260;2024-03-02T02:20:22;9.50;;;1.40;;
71941;SDS011;59997;53.300;-6.260;2024-03-02T02:23:01;6.10;;;1.10;;
71941;SDS011;59997;53.300;-6.260;2024-03-02T02:25:27;10.87;;;1.30;;
71941;SDS011;59997;53.300;-6.260;2024-03-02T02:27:54;11.45;;;1.75;;
71941;SDS011;59997;53.300;-6.260;2024-03-02T02:30:21;10.55;;;1.73;;
71941;SDS011;59997;53.300;-6.260;2024-03-02T02:32:48;8.35;;;1.30;;
71941;SDS011;59997;53.300;-6.260;2024-03-02T02:35:14;5.53;;;0.83;;
71941;SDS011;59997;53.300;-6.260;2024-03-02T02:37:40;7.80;;;1.30;;
71941;SDS011;59997;53.300;-6.260;2024-03-02T02:40:06;9.23;;;1.52;;
71941;SDS011;59997;53.300;-6.260;2024-03-02T02:42:32;8.27;;;1.43;;
71941;SDS011;59997;53.300;-6.260;2024-03-02T02:44:58;8.10;;;1.10;;
71941;SDS011;59997;53.300;-6.260;2024-03-02T02:47:23;9.03;;;1.27;;
71941;SDS011;59997;53.300;-6.260;2024-03-02T02:49:49;9.70;;;1.08;;
71941;SDS011;59997;53.300;-6.260;2024-03-02T02:52:14;6.23;;;0.87;;
71941;SDS011;59997;53.300;-6.260;2024-03-02T02:54:40;9.57;;;1.40;;
71941;SDS011;59997;53.300;-6.260;2024-03-02T02:57:05;8.55;;;1.27;;
71941;SDS011;59997;53.300;-6.260;2024-03-02T02:59:31;8.73;;;1.23;;
71941;SDS011;59997;53.300;-6.260;2024-03-02T03:01:56;9.83;;;0.97;;
71941;SDS011;59997;53.300;-6.260;2024-03-02T03:04:22;9.97;;;1.40;;
71941;SDS011;59997;53.300;-6.260;2024-03-02T03:06:47;11.73;;;1.27;;
71941;SDS011;59997;53.300;-6.260;2024-03-02T03:09:13;6.47;;;0.80;;
71941;SDS011;59997;53.300;-6.260;2024-03-02T03:11:38;11.30;;;1.20;;
71941;SDS011;59997;53.300;-6.260;2024-03-02T03:14:04;9.35;;;1.58;;
71941;SDS011;59997;53.300;-6.260;2024-03-02T03:16:30;10.67;;;0.97;;
71941;SDS011;59997;53.300;-6.260;2024-03-02T03:18:55;7.78;;;1.00;;
71941;SDS011;59997;53.300;-6.260;2024-03-02T03:21:21;8.53;;;1.10;;
71941;SDS011;59997;53.300;-6.260;2024-03-02T03:23:46;9.90;;;1.20;;
71941;SDS011;59997;53.300;-6.260;2024-03-02T03:26:12;7.97;;;1.10;;
71941;SDS011;59997;53.300;-6.260;2024-03-02T03:28:38;13.57;;;1.40;;
71941;SDS011;59997;53.300;-6.260;2024-03-02T03:31:04;8.98;;;1.52;;
71941;SDS011;59997;53.300;-6.260;2024-03-02T03:33:29;9.57;;;1.00;;
71941;SDS011;59997;53.300;-6.260;2024-03-02T03:35:55;8.82;;;1.48;;
71941;SDS011;59997;53.300;-6.260;2024-03-02T03:38:20;10.27;;;1.00;;
71941;SDS011;59997;53.300;-6.260;2024-03-02T03:40:46;8.60;;;1.47;;
71941;SDS011;59997;53.300;-6.260;2024-03-02T03:43:12;11.48;;;1.00;;
71941;SDS011;59997;53.300;-6.260;2024-03-02T03:45:38;6.97;;;0.80;;
71941;SDS011;59997;53.300;-6.260;2024-03-02T03:48:03;8.52;;;1.00;;
71941;SDS011;59997;53.300;-6.260;2024-03-02T03:50:29;5.47;;;0.83;;
71941;SDS011;59997;53.300;-6.260;2024-03-02T03:52:55;6.97;;;0.90;;
71941;SDS011;59997;53.300;-6.260;2024-03-02T03:55:20;15.93;;;1.40;;
71941;SDS011;59997;53.300;-6.260;2024-03-02T03:57:46;9.00;;;1.30;;
71941;SDS011;59997;53.300;-6.260;2024-03-02T04:00:11;11.63;;;1.58;;
71941;SDS011;59997;53.300;-6.260;2024-03-02T04:02:37;9.67;;;1.30;;
71941;SDS011;59997;53.300;-6.260;2024-03-02T04:05:03;10.27;;;1.48;;
71941;SDS011;59997;53.300;-6.260;2024-03-02T04:07:33;14.18;;;1.30;;
71941;SDS011;59997;53.300;-6.260;2024-03-02T04:10:05;7.72;;;0.90;;
71941;SDS011;59997;53.300;-6.260;2024-03-02T04:12:33;10.63;;;1.30;;
71941;SDS011;59997;53.300;-6.260;2024-03-02T04:14:58;7.93;;;1.10;;
71941;SDS011;59997;53.300;-6.260;2024-03-02T04:17:24;11.15;;;1.58;;
71941;SDS011;59997;53.300;-6.260;2024-03-02T04:19:50;6.43;;;0.82;;
71941;SDS011;59997;53.300;-6.260;2024-03-02T04:22:15;14.80;;;1.30;;
71941;SDS011;59997;53.300;-6.260;2024-03-02T04:24:41;12.67;;;1.60;;
71941;SDS011;59997;53.300;-6.260;2024-03-02T04:27:06;11.07;;;1.10;;
71941;SDS011;59997;53.300;-6.260;2024-03-02T04:29:32;10.18;;;1.27;;
71941;SDS011;59997;53.300;-6.260;2024-03-02T04:31:57;7.55;;;1.30;;
71941;SDS011;59997;53.300;-6.260;2024-03-02T04:34:23;12.73;;;1.57;;
71941;SDS011;59997;53.300;-6.260;2024-03-02T04:36:48;12.37;;;1.80;;
71941;SDS011;59997;53.300;-6.260;2024-03-02T04:39:14;15.25;;;1.83;;
71941;SDS011;59997;53.300;-6.260;2024-03-02T04:41:40;9.40;;;1.60;;
71941;SDS011;59997;53.300;-6.260;2024-03-02T04:44:06;11.07;;;2.03;;
71941;SDS011;59997;53.300;-6.260;2024-03-02T04:46:33;11.00;;;2.13;;
71941;SDS011;59997;53.300;-6.260;2024-03-02T04:48:59;16.67;;;2.67;;
71941;SDS011;59997;53.300;-6.260;2024-03-02T04:51:25;12.55;;;2.33;;
71941;SDS011;59997;53.300;-6.260;2024-03-02T04:53:51;11.67;;;1.77;;
71941;SDS011;59997;53.300;-6.260;2024-03-02T04:56:16;10.30;;;1.15;;
71941;SDS011;59997;53.300;-6.260;2024-03-02T04:59:04;9.00;;;1.30;;
71941;SDS011;59997;53.300;-6.260;2024-03-02T05:01:29;8.95;;;1.00;;
71941;SDS011;59997;53.300;-6.260;2024-03-02T05:03:55;10.40;;;1.40;;
71941;SDS011;59997;53.300;-6.260;2024-03-02T05:06:21;7.82;;;1.05;;
71941;SDS011;59997;53.300;-6.260;2024-03-02T05:08:47;9.75;;;1.38;;
71941;SDS011;59997;53.300;-6.260;2024-03-02T05:11:13;9.63;;;1.23;;
71941;SDS011;59997;53.300;-6.260;2024-03-02T05:14:01;8.93;;;1.75;;
71941;SDS011;59997;53.300;-6.260;2024-03-02T05:16:27;7.97;;;1.60;;
71941;SDS011;59997;53.300;-6.260;2024-03-02T05:18:53;8.20;;;1.17;;
71941;SDS011;59997;53.300;-6.260;2024-03-02T05:21:18;12.98;;;1.42;;
71941;SDS011;59997;53.300;-6.260;2024-03-02T05:23:45;7.05;;;0.93;;
71941;SDS011;59997;53.300;-6.260;2024-03-02T05:26:10;17.00;;;1.07;;
71941;SDS011;59997;53.300;-6.260;2024-03-02T05:28:39;5.97;;;0.90;;
71941;SDS011;59997;53.300;-6.260;2024-03-02T05:31:04;13.27;;;1.40;;
71941;SDS011;59997;53.300;-6.260;2024-03-02T05:33:30;9.15;;;1.17;;
71941;SDS011;59997;53.300;-6.260;2024-03-02T05:35:58;14.93;;;1.75;;
71941;SDS011;59997;53.300;-6.260;2024-03-02T05:38:23;9.68;;;1.15;;
71941;SDS011;59997;53.300;-6.260;2024-03-02T05:40:49;11.30;;;1.37;;
71941;SDS011;59997;53.300;-6.260;2024-03-02T05:43:14;7.37;;;0.80;;
71941;SDS011;59997;53.300;-6.260;2024-03-02T05:45:40;8.32;;;1.25;;
71941;SDS011;59997;53.300;-6.260;2024-03-02T05:48:06;10.00;;;1.30;;
71941;SDS011;59997;53.300;-6.260;2024-03-02T05:50:33;8.90;;;0.98;;
71941;SDS011;59997;53.300;-6.260;2024-03-02T05:52:58;8.73;;;1.35;;
71941;SDS011;59997;53.300;-6.260;2024-03-02T05:55:24;13.13;;;1.10;;
71941;SDS011;59997;53.300;-6.260;2024-03-02T05:57:49;8.02;;;1.08;;
71941;SDS011;59997;53.300;-6.260;2024-03-02T06:00:42;16.80;;;1.70;;
71941;SDS011;59997;53.300;-6.260;2024-03-02T06:03:08;12.38;;;1.33;;
71941;SDS011;59997;53.300;-6.260;2024-03-02T06:05:34;7.97;;;0.95;;
71941;SDS011;59997;53.300;-6.260;2024-03-02T06:08:00;17.63;;;1.73;;
71941;SDS011;59997;53.300;-6.260;2024-03-02T06:10:25;9.90;;;1.30;;
71941;SDS011;59997;53.300;-6.260;2024-03-02T06:12:51;12.93;;;1.50;;
71941;SDS011;59997;53.300;-6.260;2024-03-02T06:15:16;13.68;;;1.30;;
71941;SDS011;59997;53.300;-6.260;2024-03-02T06:17:42;11.90;;;1.33;;
71941;SDS011;59997;53.300;-6.260;2024-03-02T06:20:07;13.63;;;1.60;;
71941;SDS011;59997;53.300;-6.260;2024-03-02T06:22:34;9.75;;;1.70;;
71941;SDS011;59997;53.300;-6.260;2024-03-02T06:25:00;6.88;;;1.20;;
71941;SDS011;59997;53.300;-6.260;2024-03-02T06:27:25;6.70;;;0.93;;
71941;SDS011;59997;53.300;-6.260;2024-03-02T06:29:51;10.43;;;1.33;;
71941;SDS011;59997;53.300;-6.260;2024-03-02T06:32:16;10.23;;;1.00;;
71941;SDS011;59997;53.300;-6.260;2024-03-02T06:34:42;10.07;;;1.10;;
71941;SDS011;59997;53.300;-6.260;2024-03-02T06:37:08;12.00;;;1.80;;
71941;SDS011;59997;53.300;-6.260;2024-03-02T06:39:34;12.63;;;1.97;;
71941;SDS011;59997;53.300;-6.260;2024-03-02T06:42:00;14.50;;;2.00;;
71941;SDS011;59997;53.300;-6.260;2024-03-02T06:44:25;10.70;;;2.03;;
71941;SDS011;59997;53.300;-6.260;2024-03-02T06:46:51;19.47;;;1.57;;
71941;SDS011;59997;53.300;-6.260;2024-03-02T06:49:17;9.90;;;1.60;;
71941;SDS011;59997;53.300;-6.260;2024-03-02T06:51:43;16.60;;;2.22;;
71941;SDS011;59997;53.300;-6.260;2024-03-02T06:54:09;6.68;;;1.15;;
71941;SDS011;59997;53.300;-6.260;2024-03-02T06:56:35;11.27;;;1.63;;
71941;SDS011;59997;53.300;-6.260;2024-03-02T06:59:00;12.10;;;1.67;;
71941;SDS011;59997;53.300;-6.260;2024-03-02T07:01:26;11.43;;;1.77;;
71941;SDS011;59997;53.300;-6.260;2024-03-02T07:03:53;12.60;;;1.30;;
71941;SDS011;59997;53.300;-6.260;2024-03-02T07:06:18;11.75;;;1.50;;
71941;SDS011;59997;53.300;-6.260;2024-03-02T07:08:44;12.05;;;1.80;;
71941;SDS011;59997;53.300;-6.260;2024-03-02T07:11:09;10.10;;;1.83;;
71941;SDS011;59997;53.300;-6.260;2024-03-02T07:13:35;8.35;;;1.40;;
71941;SDS011;59997;53.300;-6.260;2024-03-02T07:16:00;8.03;;;1.17;;
71941;SDS011;59997;53.300;-6.260;2024-03-02T07:18:26;7.80;;;1.10;;
71941;SDS011;59997;53.300;-6.260;2024-03-02T07:20:52;9.52;;;1.23;;
71941;SDS011;59997;53.300;-6.260;2024-03-02T07:23:17;13.40;;;1.73;;
71941;SDS011;59997;53.300;-6.260;2024-03-02T07:25:44;7.88;;;1.33;;
71941;SDS011;59997;53.300;-6.260;2024-03-02T07:28:10;8.33;;;1.63;;
71941;SDS011;59997;53.300;-6.260;2024-03-02T07:30:35;16.57;;;1.47;;
71941;SDS011;59997;53.300;-6.260;2024-03-02T07:33:03;10.18;;;1.67;;
71941;SDS011;59997;53.300;-6.260;2024-03-02T07:35:29;8.80;;;1.42;;
71941;SDS011;59997;53.300;-6.260;2024-03-02T07:37:56;13.00;;;1.48;;
71941;SDS011;59997;53.300;-6.260;2024-03-02T07:40:22;15.60;;;2.40;;
71941;SDS011;59997;53.300;-6.260;2024-03-02T07:42:48;12.93;;;1.60;;
71941;SDS011;59997;53.300;-6.260;2024-03-02T07:45:14;10.13;;;1.53;;
71941;SDS011;59997;53.300;-6.260;2024-03-02T07:47:40;8.07;;;1.55;;
71941;SDS011;59997;53.300;-6.260;2024-03-02T07:50:05;12.88;;;1.63;;
71941;SDS011;59997;53.300;-6.260;2024-03-02T07:52:31;11.17;;;1.63;;
71941;SDS011;59997;53.300;-6.260;2024-03-02T07:54:58;12.70;;;1.77;;
71941;SDS011;59997;53.300;-6.260;2024-03-02T07:57:23;6.70;;;1.30;;
71941;SDS011;59997;53.300;-6.260;2024-03-02T07:59:49;11.25;;;1.85;;
71941;SDS011;59997;53.300;-6.260;2024-03-02T08:02:15;6.60;;;1.60;;
71941;SDS011;59997;53.300;-6.260;2024-03-02T08:04:40;10.75;;;1.25;;
71941;SDS011;59997;53.300;-6.260;2024-03-02T08:07:06;11.05;;;1.35;;
71941;SDS011;59997;53.300;-6.260;2024-03-02T08:09:32;13.77;;;1.40;;
71941;SDS011;59997;53.300;-6.260;2024-03-02T08:11:57;12.35;;;1.70;;
71941;SDS011;59997;53.300;-6.260;2024-03-02T08:14:23;8.60;;;1.23;;
71941;SDS011;59997;53.300;-6.260;2024-03-02T08:16:49;12.10;;;1.77;;
71941;SDS011;59997;53.300;-6.260;2024-03-02T08:19:15;7.87;;;1.20;;
71941;SDS011;59997;53.300;-6.260;2024-03-02T08:21:41;10.70;;;1.20;;
71941;SDS011;59997;53.300;-6.260;2024-03-02T08:24:07;8.60;;;1.30;;
71941;SDS011;59997;53.300;-6.260;2024-03-02T08:26:33;8.17;;;1.00;;
71941;SDS011;59997;53.300;-6.260;2024-03-02T08:28:59;9.23;;;1.33;;
71941;SDS011;59997;53.300;-6.260;2024-03-02T08:31:26;6.10;;;0.90;;
71941;SDS011;59997;53.300;-6.260;2024-03-02T08:33:52;8.65;;;1.10;;
71941;SDS011;59997;53.300;-6.260;2024-03-02T08:36:18;6.47;;;0.93;;
71941;SDS011;59997;53.300;-6.260;2024-03-02T08:38:44;6.47;;;1.00;;
71941;SDS011;59997;53.300;-6.260;2024-03-02T08:41:10;4.73;;;0.73;;
71941;SDS011;59997;53.300;-6.260;2024-03-02T08:43:38;7.82;;;1.15;;
71941;SDS011;59997;53.300;-6.260;2024-03-02T08:46:05;6.90;;;0.65;;
71941;SDS011;59997;53.300;-6.260;2024-03-02T08:48:30;4.83;;;0.90;;
71941;SDS011;59997;53.300;-6.260;2024-03-02T08:50:56;6.03;;;0.73;;
71941;SDS011;59997;53.300;-6.260;2024-03-02T08:53:21;7.10;;;0.70;;
71941;SDS011;59997;53.300;-6.260;2024-03-02T08:55:47;5.27;;;0.60;;
71941;SDS011;59997;53.300;-6.260;2024-03-02T08:58:12;8.90;;;1.00;;
71941;SDS011;59997;53.300;-6.260;2024-03-02T09:00:38;8.85;;;1.13;;
71941;SDS011;59997;53.300;-6.260;2024-03-02T09:03:04;4.87;;;0.97;;
71941;SDS011;59997;53.300;-6.260;2024-03-02T09:05:30;4.63;;;0.60;;
71941;SDS011;59997;53.300;-6.260;2024-03-02T09:07:55;7.27;;;0.90;;
71941;SDS011;59997;53.300;-6.260;2024-03-02T09:10:21;7.28;;;1.58;;
71941;SDS011;59997;53.300;-6.260;2024-03-02T09:12:46;4.83;;;0.63;;
71941;SDS011;59997;53.300;-6.260;2024-03-02T09:15:12;6.90;;;0.80;;
71941;SDS011;59997;53.300;-6.260;2024-03-02T09:17:37;7.82;;;0.80;;
71941;SDS011;59997;53.300;-6.260;2024-03-02T09:20:04;4.13;;;0.80;;
71941;SDS011;59997;53.300;-6.260;2024-03-02T09:22:30;5.10;;;0.80;;
71941;SDS011;59997;53.300;-6.260;2024-03-02T09:24:57;7.40;;;0.80;;
71941;SDS011;59997;53.300;-6.260;2024-03-02T09:27:23;7.10;;;0.90;;
71941;SDS011;59997;53.300;-6.260;2024-03-02T09:29:49;4.95;;;0.65;;
71941;SDS011;59997;53.300;-6.260;2024-03-02T09:32:15;7.00;;;0.63;;
71941;SDS011;59997;53.300;-6.260;2024-03-02T09:34:40;6.90;;;0.70;;
71941;SDS011;59997;53.300;-6.260;2024-03-02T09:37:06;6.40;;;1.50;;
71941;SDS011;59997;53.300;-6.260;2024-03-02T09:39:32;4.63;;;0.60;;
71941;SDS011;59997;53.300;-6.260;2024-03-02T09:41:58;5.57;;;0.60;;
71941;SDS011;59997;53.300;-6.260;2024-03-02T09:44:24;7.70;;;0.70;;
71941;SDS011;59997;53.300;-6.260;2024-03-02T09:46:51;7.70;;;0.90;;
71941;SDS011;59997;53.300;-6.260;2024-03-02T09:49:17;6.63;;;0.60;;
71941;SDS011;59997;53.300;-6.260;2024-03-02T09:51:49;8.00;;;0.80;;
71941;SDS011;59997;53.300;-6.260;2024-03-02T09:54:17;6.28;;;0.70;;
71941;SDS011;59997;53.300;-6.260;2024-03-02T09:56:43;3.90;;;0.50;;
71941;SDS011;59997;53.300;-6.260;2024-03-02T09:59:09;4.35;;;0.80;;
71941;SDS011;59997;53.300;-6.260;2024-03-02T10:01:35;4.77;;;0.70;;
71941;SDS011;59997;53.300;-6.260;2024-03-02T10:04:00;8.20;;;1.00;;
71941;SDS011;59997;53.300;-6.260;2024-03-02T10:06:27;6.13;;;0.77;;
71941;SDS011;59997;53.300;-6.260;2024-03-02T10:08:54;6.40;;;1.30;;
71941;SDS011;59997;53.300;-6.260;2024-03-02T10:16:35;5.40;;;1.20;;
71941;SDS011;59997;53.300;-6.260;2024-03-02T10:19:18;8.20;;;1.40;;
71941;SDS011;59997;53.300;-6.260;2024-03-02T10:21:48;8.98;;;1.42;;
71941;SDS011;59997;53.300;-6.260;2024-03-02T10:24:15;6.03;;;0.90;;
71941;SDS011;59997;53.300;-6.260;2024-03-02T10:26:41;5.90;;;1.67;;
71941;SDS011;59997;53.300;-6.260;2024-03-02T10:29:08;6.17;;;0.80;;
71941;SDS011;59997;53.300;-6.260;2024-03-02T10:31:35;5.55;;;0.70;;
71941;SDS011;59997;53.300;-6.260;2024-03-02T10:34:02;6.72;;;1.00;;
71941;SDS011;59997;53.300;-6.260;2024-03-02T10:36:29;8.82;;;1.17;;
71941;SDS011;59997;53.300;-6.260;2024-03-02T10:38:56;6.33;;;0.63;;
71941;SDS011;59997;53.300;-6.260;2024-03-02T10:41:24;5.70;;;0.90;;
71941;SDS011;59997;53.300;-6.260;2024-03-02T10:43:52;8.68;;;1.55;;
71941;SDS011;59997;53.300;-6.260;2024-03-02T10:46:27;6.47;;;0.70;;
71941;SDS011;59997;53.300;-6.260;2024-03-02T10:48:57;6.03;;;1.00;;
71941;SDS011;59997;53.300;-6.260;2024-03-02T10:51:28;6.93;;;1.15;;
71941;SDS011;59997;53.300;-6.260;2024-03-02T10:54:00;5.57;;;0.93;;
71941;SDS011;59997;53.300;-6.260;2024-03-02T10:56:33;6.03;;;1.00;;
71941;SDS011;59997;53.300;-6.260;2024-03-02T11:01:48;8.00;;;1.07;;
71941;SDS011;59997;53.300;-6.260;2024-03-02T11:04:16;5.65;;;0.68;;
71941;SDS011;59997;53.300;-6.260;2024-03-02T11:06:50;6.97;;;2.00;;
71941;SDS011;59997;53.300;-6.260;2024-03-02T11:09:18;6.20;;;1.67;;
71941;SDS011;59997;53.300;-6.260;2024-03-02T11:11:46;5.03;;;0.73;;
71941;SDS011;59997;53.300;-6.260;2024-03-02T11:14:21;8.23;;;1.73;;
71941;SDS011;59997;53.300;-6.260;2024-03-02T11:16:50;5.35;;;0.93;;
71941;SDS011;59997;53.300;-6.260;2024-03-02T11:19:17;5.22;;;1.13;;
71941;SDS011;59997;53.300;-6.260;2024-03-02T11:21:43;5.95;;;1.05;;
71941;SDS011;59997;53.300;-6.260;2024-03-02T11:26:57;7.60;;;0.90;;
71941;SDS011;59997;53.300;-6.260;2024-03-02T11:32:22;6.00;;;0.60;;
71941;SDS011;59997;53.300;-6.260;2024-03-02T11:34:51;4.70;;;0.80;;
71941;SDS011;59997;53.300;-6.260;2024-03-02T11:37:17;4.78;;;0.90;;
71941;SDS011;59997;53.300;-6.260;2024-03-02T11:39:45;3.10;;;0.40;;
71941;SDS011;59997;53.300;-6.260;2024-03-02T11:42:12;4.20;;;0.57;;
71941;SDS011;59997;53.300;-6.260;2024-03-02T11:44:47;5.13;;;1.00;;
71941;SDS011;59997;53.300;-6.260;2024-03-02T11:47:16;5.43;;;0.73;;
71941;SDS011;59997;53.300;-6.260;2024-03-02T11:49:49;4.80;;;0.80;;
71941;SDS011;59997;53.300;-6.260;2024-03-02T11:52:16;4.37;;;0.60;;
71941;SDS011;59997;53.300;-6.260;2024-03-02T11:54:45;3.95;;;0.70;;
71941;SDS011;59997;53.300;-6.260;2024-03-02T11:57:14;6.10;;;0.77;;
71941;SDS011;59997;53.300;-6.260;2024-03-02T11:59:41;5.90;;;1.10;;
71941;SDS011;59997;53.300;-6.260;2024-03-02T12:02:12;4.22;;;0.85;;
71941;SDS011;59997;53.300;-6.260;2024-03-02T12:04:41;4.57;;;0.77;;
71941;SDS011;59997;53.300;-6.260;2024-03-02T12:07:07;6.22;;;0.70;;
71941;SDS011;59997;53.300;-6.260;2024-03-02T12:09:33;4.65;;;0.73;;
71941;SDS011;59997;53.300;-6.260;2024-03-02T12:12:06;4.83;;;0.87;;
71941;SDS011;59997;53.300;-6.260;2024-03-02T12:14:34;3.80;;;0.55;;
71941;SDS011;59997;53.300;-6.260;2024-03-02T12:17:01;4.38;;;0.65;;
71941;SDS011;59997;53.300;-6.260;2024-03-02T12:19:27;5.43;;;0.50;;
71941;SDS011;59997;53.300;-6.260;2024-03-02T12:21:55;4.70;;;0.70;;
71941;SDS011;59997;53.300;-6.260;2024-03-02T12:24:26;5.97;;;0.80;;
71941;SDS011;59997;53.300;-6.260;2024-03-02T12:26:53;4.68;;;0.77;;
71941;SDS011;59997;53.300;-6.260;2024-03-02T12:29:19;3.92;;;0.50;;
71941;SDS011;59997;53.300;-6.260;2024-03-02T12:31:47;4.53;;;0.52;;
71941;SDS011;59997;53.300;-6.260;2024-03-02T12:34:17;6.65;;;0.93;;
71941;SDS011;59997;53.300;-6.260;2024-03-02T12:36:44;4.27;;;0.50;;
71941;SDS011;59997;53.300;-6.260;2024-03-02T12:39:13;7.00;;;0.63;;
71941;SDS011;59997;53.300;-6.260;2024-03-02T12:41:38;3.33;;;0.40;;
71941;SDS011;59997;53.300;-6.260;2024-03-02T12:44:07;3.10;;;0.40;;
71941;SDS011;59997;53.300;-6.260;2024-03-02T12:46:33;4.70;;;0.65;;
71941;SDS011;59997;53.300;-6.260;2024-03-02T12:49:04;3.30;;;0.50;;
71941;SDS011;59997;53.300;-6.260;2024-03-02T12:51:33;3.20;;;0.37;;
71941;SDS011;59997;53.300;-6.260;2024-03-02T12:53:59;3.85;;;0.60;;
71941;SDS011;59997;53.300;-6.260;2024-03-02T12:56:25;2.70;;;0.40;;
71941;SDS011;59997;53.300;-6.260;2024-03-02T12:58:56;3.25;;;0.60;;
71941;SDS011;59997;53.300;-6.260;2024-03-02T13:01:22;3.25;;;0.40;;
71941;SDS011;59997;53.300;-6.260;2024-03-02T13:03:48;3.27;;;0.67;;
71941;SDS011;59997;53.300;-6.260;2024-03-02T13:06:17;3.38;;;0.60;;
71941;SDS011;59997;53.300;-6.260;2024-03-02T13:08:44;3.42;;;0.60;;
71941;SDS011;59997;53.300;-6.260;2024-03-02T13:11:10;4.47;;;1.47;;
71941;SDS011;59997;53.300;-6.260;2024-03-02T13:13:36;3.30;;;0.40;;
71941;SDS011;59997;53.300;-6.260;2024-03-02T13:16:03;3.85;;;0.38;;
71941;SDS011;59997;53.300;-6.260;2024-03-02T13:18:33;3.83;;;0.40;;
71941;SDS011;59997;53.300;-6.260;2024-03-02T13:20:59;4.68;;;0.75;;
71941;SDS011;59997;53.300;-6.260;2024-03-02T13:23:25;5.03;;;0.95;;
71941;SDS011;59997;53.300;-6.260;2024-03-02T13:25:51;5.27;;;0.70;;
71941;SDS011;59997;53.300;-6.260;2024-03-02T13:28:16;4.13;;;0.60;;
71941;SDS011;59997;53.300;-6.260;2024-03-02T13:30:42;6.95;;;1.30;;
71941;SDS011;59997;53.300;-6.260;2024-03-02T13:33:08;5.57;;;1.10;;
71941;SDS011;59997;53.300;-6.260;2024-03-02T13:35:33;6.23;;;1.10;;
71941;SDS011;59997;53.300;-6.260;2024-03-02T13:37:59;5.27;;;0.80;;
71941;SDS011;59997;53.300;-6.260;2024-03-02T13:40:24;4.28;;;0.57;;
71941;SDS011;59997;53.300;-6.260;2024-03-02T13:42:50;3.90;;;0.70;;
71941;SDS011;59997;53.300;-6.260;2024-03-02T13:45:17;6.22;;;0.80;;
71941;SDS011;59997;53.300;-6.260;2024-03-02T13:47:43;5.47;;;0.88;;
71941;SDS011;59997;53.300;-6.260;2024-03-02T13:50:09;6.40;;;0.57;;
71941;SDS011;59997;53.300;-6.260;2024-03-02T13:52:35;4.78;;;0.60;;
71941;SDS011;59997;53.300;-6.260;2024-03-02T13:55:00;5.75;;;0.70;;
71941;SDS011;59997;53.300;-6.260;2024-03-02T13:57:26;5.67;;;0.90;;
71941;SDS011;59997;53.300;-6.260;2024-03-02T13:59:53;3.97;;;0.60;;
71941;SDS011;59997;53.300;-6.260;2024-03-02T14:02:19;3.20;;;0.50;;
71941;SDS011;59997;53.300;-6.260;2024-03-02T14:04:45;4.93;;;0.57;;
71941;SDS011;59997;53.300;-6.260;2024-03-02T14:07:13;3.80;;;0.52;;
71941;SDS011;59997;53.300;-6.260;2024-03-02T14:09:39;4.20;;;0.40;;
71941;SDS011;59997;53.300;-6.260;2024-03-02T14:12:05;3.28;;;0.50;;
71941;SDS011;59997;53.300;-6.260;2024-03-02T14:14:31;3.40;;;0.43;;
71941;SDS011;59997;53.300;-6.260;2024-03-02T14:16:57;3.23;;;0.50;;
71941;SDS011;59997;53.300;-6.260;2024-03-02T14:19:29;4.33;;;0.70;;
71941;SDS011;59997;53.300;-6.260;2024-03-02T14:21:54;2.92;;;0.30;;
71941;SDS011;59997;53.300;-6.260;2024-03-02T14:24:21;4.93;;;0.40;;
71941;SDS011;59997;53.300;-6.260;2024-03-02T14:26:54;4.03;;;0.50;;
71941;SDS011;59997;53.300;-6.260;2024-03-02T14:29:19;4.07;;;0.40;;
71941;SDS011;59997;53.300;-6.260;2024-03-02T14:31:45;4.43;;;0.60;;
71941;SDS011;59997;53.300;-6.260;2024-03-02T14:34:13;2.85;;;0.40;;
71941;SDS011;59997;53.300;-6.260;2024-03-02T14:36:40;3.05;;;0.50;;
71941;SDS011;59997;53.300;-6.260;2024-03-02T14:39:08;4.40;;;0.60;;
71941;SDS011;59997;53.300;-6.260;2024-03-02T14:41:35;4.53;;;0.60;;
71941;SDS011;59997;53.300;-6.260;2024-03-02T14:44:02;5.27;;;0.70;;